Time;durP1;ratioP1;P1;durP2;ratioP2;P2;SDS_P1;SDS_P2;PMS_P1;PMS_P2;Temp;Humidity;BMP_temperature;BMP_pressure;BME280_temperature;BME280_humidity;BME280_pressure;Samples;Min_cycle;Max_cycle;Signal;HPM_P1;HPM_P2
2022/11/09 00:02:21;;;;;;;2.53;1.17;;;14.40;99.90;;;;;;5035331;28;20239;-78
2022/11/09 00:04:47;;;;;;;1.13;0.90;;;14.40;99.90;;;;;;5033785;28;20191;-79
2022/11/09 00:07:13;;;;;;;2.37;1.10;;;14.30;99.90;;;;;;5035353;28;20549;-78
2022/11/09 00:09:38;;;;;;;1.33;0.97;;;14.30;99.90;;;;;;5033916;28;20183;-78
2022/11/09 00:12:06;;;;;;;3.23;1.23;;;14.20;99.90;;;;;;5035174;28;20608;-78
2022/11/09 00:14:31;;;;;;;3.27;1.20;;;14.30;99.90;;;;;;5035155;28;20171;-78
2022/11/09 00:16:57;;;;;;;1.70;1.00;;;14.30;99.90;;;;;;5035133;28;20172;-78
2022/11/09 00:19:23;;;;;;;3.60;1.20;;;14.30;99.90;;;;;;5035035;28;20173;-78
2022/11/09 00:21:48;;;;;;;2.60;1.30;;;14.30;99.90;;;;;;5033223;28;20626;-78
2022/11/09 00:24:14;;;;;;;1.77;1.03;;;14.30;99.90;;;;;;5034826;28;20664;-78
2022/11/09 00:26:39;;;;;;;1.77;1.10;;;14.20;99.90;;;;;;5034498;28;20694;-78
2022/11/09 00:29:05;;;;;;;3.13;1.00;;;14.20;99.90;;;;;;5034493;28;20194;-78
2022/11/09 00:31:31;;;;;;;2.83;1.20;;;14.20;99.90;;;;;;5034494;28;20566;-78
2022/11/09 00:33:56;;;;;;;2.50;1.10;;;14.20;99.90;;;;;;5033384;28;20172;-78
2022/11/09 00:36:24;;;;;;;1.83;1.10;;;14.10;99.90;;;;;;5033975;28;20192;-78
2022/11/09 00:38:51;;;;;;;2.80;1.40;;;14.10;99.90;;;;;;5033595;28;20244;-78
2022/11/09 00:41:18;;;;;;;3.73;1.00;;;14.10;99.90;;;;;;5035090;28;20192;-79
2022/11/09 00:43:43;;;;;;;4.30;1.37;;;14.10;99.90;;;;;;5034209;28;20179;-78
2022/11/09 00:46:09;;;;;;;1.83;1.10;;;14.10;99.90;;;;;;5035359;28;20268;-78
2022/11/09 00:48:35;;;;;;;2.20;1.33;;;14.00;99.90;;;;;;5034388;28;20636;-78
2022/11/09 00:51:01;;;;;;;1.37;1.10;;;14.00;99.90;;;;;;5033807;28;20227;-78
2022/11/09 00:53:26;;;;;;;1.67;1.00;;;14.00;99.90;;;;;;5032462;28;20290;-78
2022/11/09 00:55:57;;;;;;;1.80;0.93;;;14.00;99.90;;;;;;5033095;28;20685;-78
2022/11/09 00:58:23;;;;;;;1.77;1.23;;;14.00;99.90;;;;;;5034840;28;20172;-78
2022/11/09 01:00:49;;;;;;;3.93;0.90;;;14.00;99.90;;;;;;5040437;28;20180;-79
2022/11/09 01:03:15;;;;;;;2.77;1.30;;;14.00;99.90;;;;;;5044883;28;20173;-78
2022/11/09 01:05:41;;;;;;;2.47;1.27;;;13.90;99.90;;;;;;5043753;28;20172;-78
2022/11/09 01:08:06;;;;;;;2.63;1.33;;;14.00;99.90;;;;;;5035411;28;20540;-78
2022/11/09 01:10:32;;;;;;;3.10;1.13;;;13.90;99.90;;;;;;5033500;28;20212;-78
2022/11/09 01:12:58;;;;;;;2.13;1.10;;;13.90;99.90;;;;;;5034153;28;20308;-78
2022/11/09 01:15:24;;;;;;;2.33;1.10;;;13.90;99.90;;;;;;5035068;28;20172;-78
2022/11/09 01:17:49;;;;;;;3.07;1.30;;;13.90;99.90;;;;;;5034770;28;20200;-79
2022/11/09 01:20:16;;;;;;;1.93;0.90;;;13.90;99.90;;;;;;5035170;28;20176;-78
2022/11/09 01:22:41;;;;;;;2.17;1.27;;;13.90;99.90;;;;;;5035707;28;20266;-78
2022/11/09 01:25:08;;;;;;;1.67;1.30;;;13.90;99.90;;;;;;5036262;28;20542;-78
2022/11/09 01:27:34;;;;;;;3.20;1.20;;;13.90;99.90;;;;;;5032903;28;20180;-78
2022/11/09 01:30:00;;;;;;;1.70;1.10;;;13.90;99.90;;;;;;5034469;28;20191;-78
2022/11/09 01:32:25;;;;;;;2.00;1.20;;;13.90;99.90;;;;;;5034722;28;20204;-78
2022/11/09 01:34:51;;;;;;;4.40;1.20;;;13.90;99.90;;;;;;5033436;28;20183;-79
2022/11/09 01:37:16;;;;;;;0.93;0.80;;;13.90;99.90;;;;;;5034668;28;20199;-78
2022/11/09 01:39:42;;;;;;;3.03;1.00;;;13.90;99.90;;;;;;5034281;28;20627;-78
2022/11/09 01:42:07;;;;;;;1.33;1.10;;;13.90;99.90;;;;;;5032906;28;20196;-78
2022/11/09 01:44:37;;;;;;;1.50;1.30;;;13.90;99.90;;;;;;5032975;28;20197;-78
2022/11/09 01:47:24;;;;;;;2.60;1.30;;;13.90;99.90;;;;;;5034330;28;20190;-78
2022/11/09 01:49:57;;;;;;;1.70;1.00;;;13.90;99.90;;;;;;5033845;28;20191;-78
2022/11/09 01:52:31;;;;;;;2.30;1.13;;;13.90;99.90;;;;;;5034459;28;20222;-78
2022/11/09 01:55:01;;;;;;;3.33;1.10;;;13.80;99.90;;;;;;5034476;28;20191;-78
2022/11/09 01:57:32;;;;;;;2.63;1.27;;;13.80;99.90;;;;;;5034472;28;20176;-78
2022/11/09 02:00:03;;;;;;;3.10;1.20;;;13.80;99.90;;;;;;5034178;28;20157;-78
2022/11/09 02:02:28;;;;;;;3.67;1.17;;;13.80;99.90;;;;;;5033202;28;20214;-78
2022/11/09 02:04:59;;;;;;;3.07;1.20;;;13.70;99.90;;;;;;5033896;28;20255;-78
2022/11/09 02:07:25;;;;;;;1.33;0.90;;;13.70;99.90;;;;;;5033191;28;20184;-78
2022/11/09 02:10:00;;;;;;;2.60;1.10;;;13.70;99.90;;;;;;5033562;28;20178;-78
2022/11/09 02:12:28;;;;;;;3.63;1.30;;;13.70;99.90;;;;;;5034228;28;20338;-78
2022/11/09 02:14:55;;;;;;;2.33;1.10;;;13.70;99.90;;;;;;5032541;28;20215;-79
2022/11/09 02:17:21;;;;;;;1.53;1.00;;;13.70;99.90;;;;;;5034524;28;20168;-78
2022/11/09 02:19:46;;;;;;;3.00;1.40;;;13.60;99.90;;;;;;5032912;28;20177;-79
2022/11/09 02:22:12;;;;;;;4.67;1.30;;;13.70;99.90;;;;;;5031744;28;20204;-78
2022/11/09 02:24:38;;;;;;;8.03;1.27;;;13.70;99.90;;;;;;5034807;28;20214;-78
2022/11/09 02:27:06;;;;;;;3.17;1.30;;;13.60;99.90;;;;;;5036963;28;20181;-78
2022/11/09 02:29:35;;;;;;;4.37;1.23;;;13.60;99.90;;;;;;5037350;28;20168;-78
2022/11/09 02:32:17;;;;;;;3.87;1.20;;;13.60;99.90;;;;;;5035778;28;20200;-78
2022/11/09 02:34:43;;;;;;;3.00;1.30;;;13.60;99.90;;;;;;5037401;28;20644;-78
2022/11/09 02:37:08;;;;;;;4.63;1.40;;;13.60;99.90;;;;;;5035795;28;20199;-78
2022/11/09 02:39:34;;;;;;;3.27;1.00;;;13.60;99.90;;;;;;5036587;28;20194;-78
2022/11/09 02:42:04;;;;;;;2.37;1.00;;;13.50;99.90;;;;;;5036744;28;20227;-78
2022/11/09 02:44:34;;;;;;;4.73;1.27;;;13.50;99.90;;;;;;5037041;28;20172;-78
2022/11/09 02:47:00;;;;;;;6.90;1.40;;;13.50;99.90;;;;;;5037026;28;20176;-78
2022/11/09 02:49:25;;;;;;;2.80;1.27;;;13.50;99.90;;;;;;5036864;28;20657;-78
2022/11/09 02:51:51;;;;;;;4.13;1.17;;;13.50;99.90;;;;;;5037027;28;20204;-78
2022/11/09 02:54:16;;;;;;;4.17;1.40;;;13.40;99.90;;;;;;5035791;28;20543;-78
2022/11/09 02:56:42;;;;;;;3.10;1.50;;;13.40;99.90;;;;;;5034620;28;20191;-78
2022/11/09 02:59:07;;;;;;;3.20;1.33;;;13.40;99.90;;;;;;5034851;28;20191;-78
2022/11/09 03:01:33;;;;;;;5.53;1.27;;;13.30;99.90;;;;;;5035081;28;20277;-78
2022/11/09 03:03:58;;;;;;;4.90;1.60;;;13.30;99.90;;;;;;5035588;28;20267;-78
2022/11/09 03:06:33;;;;;;;3.47;1.47;;;13.40;99.90;;;;;;5037827;28;20263;-78
2022/11/09 03:09:04;;;;;;;5.10;1.20;;;13.40;99.90;;;;;;5036547;28;20156;-78
2022/11/09 03:11:30;;;;;;;3.83;1.13;;;13.30;99.90;;;;;;5034371;28;21012;-79
2022/11/09 03:13:55;;;;;;;4.23;1.50;;;13.30;99.90;;;;;;5035208;28;20208;-78
2022/11/09 03:16:21;;;;;;;3.77;1.10;;;13.30;99.90;;;;;;5036232;28;20546;-78
2022/11/09 03:18:46;;;;;;;1.80;1.00;;;13.40;99.90;;;;;;5036490;28;20176;-78
2022/11/09 03:21:12;;;;;;;5.27;1.57;;;13.40;99.90;;;;;;5036428;28;20188;-78
2022/11/09 03:23:38;;;;;;;7.67;1.30;;;13.40;99.90;;;;;;5036299;28;20176;-78
2022/11/09 03:26:03;;;;;;;2.53;1.23;;;13.40;99.90;;;;;;5034835;28;20168;-78
2022/11/09 03:28:29;;;;;;;4.70;1.30;;;13.40;99.90;;;;;;5034915;28;20180;-78
2022/11/09 03:30:54;;;;;;;5.77;1.53;;;13.50;99.90;;;;;;5035841;28;20195;-78
2022/11/09 03:33:20;;;;;;;3.37;1.13;;;13.50;99.90;;;;;;5035007;28;20220;-78
2022/11/09 03:35:45;;;;;;;6.17;1.10;;;13.50;99.90;;;;;;5033034;28;20263;-78
2022/11/09 03:38:12;;;;;;;9.13;1.57;;;13.50;99.90;;;;;;5034690;28;20588;-78
2022/11/09 03:40:38;;;;;;;6.77;1.43;;;13.50;99.90;;;;;;5034547;28;20259;-78
2022/11/09 03:43:03;;;;;;;7.43;1.37;;;13.50;99.90;;;;;;5036650;28;20227;-78
2022/11/09 03:45:29;;;;;;;6.07;1.50;;;13.50;99.90;;;;;;5036351;28;20175;-78
2022/11/09 03:47:59;;;;;;;5.23;1.37;;;13.50;99.90;;;;;;5036230;28;20173;-78
2022/11/09 03:50:26;;;;;;;4.97;1.40;;;13.60;99.90;;;;;;5035600;28;20225;-78
2022/11/09 03:52:52;;;;;;;11.00;1.40;;;13.60;99.90;;;;;;5034492;28;20200;-78
2022/11/09 03:55:18;;;;;;;4.10;1.30;;;13.60;99.90;;;;;;5035585;28;20191;-78
2022/11/09 03:57:45;;;;;;;3.93;1.40;;;13.60;99.90;;;;;;5035234;28;20181;-78
2022/11/09 04:00:13;;;;;;;5.77;1.53;;;13.60;99.90;;;;;;5034446;28;20180;-79
2022/11/09 04:02:38;;;;;;;5.20;1.40;;;13.70;99.90;;;;;;5035832;28;20676;-79
2022/11/09 04:05:05;;;;;;;7.03;1.60;;;13.70;99.90;;;;;;5034295;28;20203;-79
2022/11/09 04:07:31;;;;;;;3.40;1.33;;;13.70;99.90;;;;;;5033902;28;20523;-79
2022/11/09 04:09:56;;;;;;;4.93;0.90;;;13.60;99.90;;;;;;5035177;28;20180;-78
2022/11/09 04:12:22;;;;;;;7.27;1.70;;;13.70;99.90;;;;;;5033328;28;20280;-78
2022/11/09 04:14:47;;;;;;;5.77;1.10;;;13.70;99.90;;;;;;5035419;28;20572;-78
2022/11/09 04:17:13;;;;;;;6.80;1.60;;;13.60;99.90;;;;;;5035177;28;20165;-78
2022/11/09 04:19:38;;;;;;;7.00;1.67;;;13.70;99.90;;;;;;5035479;28;20199;-78
2022/11/09 04:22:04;;;;;;;3.83;1.17;;;13.70;99.90;;;;;;5035240;28;20271;-78
2022/11/09 04:24:29;;;;;;;2.73;0.93;;;13.70;99.90;;;;;;5033403;28;20180;-78
2022/11/09 04:26:55;;;;;;;3.80;1.17;;;13.70;99.90;;;;;;5034458;28;20188;-78
2022/11/09 04:29:20;;;;;;;3.50;1.37;;;13.70;99.90;;;;;;5034974;28;20184;-78
2022/11/09 04:31:50;;;;;;;7.40;1.50;;;13.70;99.90;;;;;;5034063;28;20203;-78
2022/11/09 04:34:16;;;;;;;6.80;1.53;;;13.70;99.90;;;;;;5035106;28;20306;-78
2022/11/09 04:36:42;;;;;;;6.47;1.30;;;13.70;99.90;;;;;;5033201;28;20215;-78
2022/11/09 04:39:08;;;;;;;5.00;1.37;;;13.70;99.90;;;;;;5033218;28;20169;-78
2022/11/09 04:41:33;;;;;;;5.50;1.17;;;13.70;99.90;;;;;;5032354;28;20209;-80
2022/11/09 04:43:59;;;;;;;3.50;1.17;;;13.70;99.90;;;;;;5013785;28;20663;-78
2022/11/09 04:46:25;;;;;;;8.63;1.30;;;13.70;99.90;;;;;;5015099;28;20176;-78
2022/11/09 04:48:51;;;;;;;5.77;1.37;;;13.80;99.90;;;;;;5013518;28;20320;-78
2022/11/09 04:51:16;;;;;;;4.27;1.23;;;13.80;99.90;;;;;;5013407;28;20232;-78
2022/11/09 04:53:42;;;;;;;4.03;1.20;;;13.80;99.90;;;;;;5015985;28;20260;-78
2022/11/09 04:56:08;;;;;;;6.20;1.70;;;13.80;99.90;;;;;;5014901;28;20260;-78
2022/11/09 04:58:33;;;;;;;3.87;1.33;;;13.80;99.90;;;;;;5020575;28;20222;-79
2022/11/09 05:01:04;;;;;;;5.50;1.43;;;13.70;99.90;;;;;;5035807;28;20316;-78
2022/11/09 05:03:30;;;;;;;5.83;1.63;;;13.70;99.90;;;;;;5036805;28;20192;-78
2022/11/09 05:05:56;;;;;;;4.10;1.20;;;13.60;99.90;;;;;;5036439;28;20180;-78
2022/11/09 05:08:21;;;;;;;6.60;1.33;;;13.60;99.90;;;;;;5036698;28;20180;-78
2022/11/09 05:10:47;;;;;;;4.73;1.43;;;13.60;99.90;;;;;;5036589;28;20176;-79
2022/11/09 05:13:13;;;;;;;2.83;1.10;;;13.60;99.90;;;;;;5037168;28;20192;-79
2022/11/09 05:15:39;;;;;;;5.70;1.57;;;13.50;99.90;;;;;;5037475;28;20668;-79
2022/11/09 05:18:06;;;;;;;5.10;1.23;;;13.50;99.90;;;;;;5038600;28;20226;-78
2022/11/09 05:20:31;;;;;;;5.17;1.00;;;13.50;99.90;;;;;;5038712;28;20173;-79
2022/11/09 05:25:43;;;;;;;3.07;1.03;;;13.40;99.90;;;;;;5036346;28;20214;-79
2022/11/09 05:28:09;;;;;;;4.67;1.17;;;13.40;99.90;;;;;;5035837;28;20180;-79
2022/11/09 05:30:34;;;;;;;4.73;1.20;;;13.40;99.90;;;;;;5035913;28;20591;-79
2022/11/09 05:33:00;;;;;;;7.47;1.30;;;13.40;99.90;;;;;;5033960;28;20211;-79
2022/11/09 05:35:25;;;;;;;3.53;1.27;;;13.40;99.90;;;;;;5033684;28;20180;-79
2022/11/09 05:37:51;;;;;;;3.63;1.33;;;13.40;99.90;;;;;;5035435;28;20178;-78
2022/11/09 05:40:18;;;;;;;8.57;2.00;;;13.40;99.90;;;;;;5033947;28;20203;-78
2022/11/09 05:42:44;;;;;;;6.23;1.47;;;13.50;99.90;;;;;;5033888;28;20200;-77
2022/11/09 05:45:12;;;;;;;6.53;1.43;;;13.40;99.90;;;;;;5033734;28;20187;-78
2022/11/09 05:47:39;;;;;;;4.73;1.23;;;13.40;99.90;;;;;;5034178;28;20172;-78
2022/11/09 05:50:06;;;;;;;4.10;2.70;;;13.40;99.90;;;;;;5031328;28;20212;-76
2022/11/09 05:52:32;;;;;;;6.77;1.20;;;13.30;99.90;;;;;;5031163;28;20262;-77
2022/11/09 05:54:59;;;;;;;3.77;1.10;;;13.30;99.90;;;;;;5032838;28;20172;-76
2022/11/09 05:57:25;;;;;;;8.23;1.60;;;13.30;99.90;;;;;;5031292;28;20176;-77
2022/11/09 05:59:50;;;;;;;7.50;1.67;;;13.20;99.90;;;;;;5032994;28;20188;-76
2022/11/09 06:02:16;;;;;;;8.93;1.97;;;13.10;99.90;;;;;;5036272;28;20578;-77
2022/11/09 06:04:41;;;;;;;6.47;1.50;;;13.20;99.90;;;;;;5035208;28;20251;-76
2022/11/09 06:07:07;;;;;;;5.93;1.47;;;13.20;99.90;;;;;;5035545;28;20196;-77
2022/11/09 06:09:32;;;;;;;7.70;1.57;;;13.20;99.90;;;;;;5034859;28;20191;-77
2022/11/09 06:11:58;;;;;;;6.97;1.40;;;13.20;99.90;;;;;;5036283;28;20254;-77
2022/11/09 06:14:23;;;;;;;5.90;1.40;;;13.20;99.90;;;;;;5036666;28;20647;-77
2022/11/09 06:16:48;;;;;;;5.70;1.43;;;13.20;99.90;;;;;;5036433;28;20175;-77
2022/11/09 06:19:14;;;;;;;8.50;1.43;;;13.20;99.90;;;;;;5035204;28;20179;-76
2022/11/09 06:21:39;;;;;;;4.20;1.50;;;13.20;99.90;;;;;;5036084;28;20569;-76
2022/11/09 06:24:05;;;;;;;7.60;1.63;;;13.20;99.90;;;;;;5036101;28;20227;-76
2022/11/09 06:26:31;;;;;;;4.73;1.10;;;13.20;99.90;;;;;;5036392;28;20165;-76
2022/11/09 06:28:56;;;;;;;5.00;1.40;;;13.20;99.90;;;;;;5034769;28;20662;-76
2022/11/09 06:31:22;;;;;;;3.80;1.03;;;13.10;99.90;;;;;;5035740;28;20570;-76
2022/11/09 06:33:47;;;;;;;8.07;1.50;;;13.20;99.90;;;;;;5036227;28;20173;-77
2022/11/09 06:36:13;;;;;;;5.20;1.40;;;13.20;99.90;;;;;;5035848;28;20172;-76
2022/11/09 06:38:39;;;;;;;4.73;1.60;;;13.20;99.90;;;;;;5035863;28;20179;-76
2022/11/09 06:41:05;;;;;;;5.67;1.53;;;13.10;99.90;;;;;;5036290;28;20192;-77
2022/11/09 06:43:30;;;;;;;6.87;1.60;;;13.20;99.90;;;;;;5035883;28;20546;-76
2022/11/09 06:45:56;;;;;;;4.67;1.63;;;13.20;99.90;;;;;;5034424;28;20670;-77
2022/11/09 06:48:22;;;;;;;5.97;1.60;;;13.10;99.90;;;;;;5036640;28;20164;-77
2022/11/09 06:50:48;;;;;;;5.90;1.33;;;13.10;99.90;;;;;;5034803;28;20177;-77
2022/11/09 06:53:15;;;;;;;4.50;1.20;;;13.20;99.90;;;;;;5036163;28;20210;-77
2022/11/09 06:55:41;;;;;;;7.07;1.50;;;13.10;99.90;;;;;;5035420;28;20180;-76
2022/11/09 06:58:14;;;;;;;5.80;1.40;;;13.10;99.90;;;;;;5036083;28;20173;-77
2022/11/09 07:00:40;;;;;;;8.17;1.50;;;13.10;99.90;;;;;;5036145;28;20172;-78
2022/11/09 07:03:05;;;;;;;7.83;1.33;;;13.10;99.90;;;;;;5034534;28;20673;-78
2022/11/09 07:05:31;;;;;;;4.40;1.00;;;13.10;99.90;;;;;;5036201;28;20214;-77
2022/11/09 07:07:56;;;;;;;3.50;1.00;;;13.10;99.90;;;;;;5034703;28;20272;-77
2022/11/09 07:10:23;;;;;;;6.60;1.30;;;13.10;99.90;;;;;;5034947;28;20176;-78
2022/11/09 07:12:48;;;;;;;6.23;1.00;;;13.10;99.90;;;;;;5034070;28;20216;-78
2022/11/09 07:15:14;;;;;;;3.63;1.13;;;13.10;99.90;;;;;;5036430;28;20173;-77
2022/11/09 07:17:40;;;;;;;3.07;1.07;;;13.10;99.90;;;;;;5035658;28;20173;-77
2022/11/09 07:20:10;;;;;;;2.90;0.90;;;13.10;99.90;;;;;;5035793;28;20185;-78
2022/11/09 07:22:38;;;;;;;7.33;1.17;;;13.00;99.90;;;;;;5035730;28;20258;-77
2022/11/09 07:25:09;;;;;;;4.80;1.27;;;13.10;99.90;;;;;;5034731;28;20183;-77
2022/11/09 07:27:35;;;;;;;3.83;1.07;;;13.00;99.90;;;;;;5036531;28;20161;-78
2022/11/09 07:30:01;;;;;;;3.10;1.10;;;13.00;99.90;;;;;;5036439;28;20198;-77
2022/11/09 07:32:26;;;;;;;2.97;0.77;;;13.00;99.90;;;;;;5034133;28;20222;-78
2022/11/09 07:34:52;;;;;;;2.40;0.90;;;13.00;99.90;;;;;;5035482;28;20168;-77
2022/11/09 07:37:17;;;;;;;4.33;1.00;;;13.00;99.90;;;;;;5035286;28;20259;-77
2022/11/09 07:39:43;;;;;;;1.93;0.70;;;12.90;99.90;;;;;;5035265;28;20190;-77
2022/11/09 07:42:08;;;;;;;4.33;1.20;;;12.90;99.90;;;;;;5034011;28;20750;-78
2022/11/09 07:44:34;;;;;;;1.33;0.80;;;12.90;99.90;;;;;;5035287;28;20176;-78
2022/11/09 07:47:00;;;;;;;6.90;1.30;;;12.90;99.90;;;;;;5035042;28;20172;-77
2022/11/09 07:49:25;;;;;;;1.97;1.07;;;12.90;99.90;;;;;;5033769;28;20654;-77
2022/11/09 07:51:51;;;;;;;3.87;0.90;;;12.90;99.90;;;;;;5034839;28;20289;-77
2022/11/09 07:54:16;;;;;;;2.13;0.83;;;12.90;99.90;;;;;;5034847;28;20172;-77
2022/11/09 07:56:42;;;;;;;3.33;0.80;;;12.90;99.90;;;;;;5035046;28;20222;-78
2022/11/09 07:59:07;;;;;;;2.97;1.10;;;12.80;99.90;;;;;;5034903;28;20740;-77
2022/11/09 08:01:33;;;;;;;3.33;0.80;;;12.90;99.90;;;;;;5034595;28;20227;-77
2022/11/09 08:03:58;;;;;;;3.57;0.83;;;12.90;99.90;;;;;;5034563;28;20174;-77
2022/11/09 08:06:26;;;;;;;3.13;0.80;;;12.90;99.90;;;;;;5034894;28;20172;-77
2022/11/09 08:08:54;;;;;;;4.17;1.23;;;12.90;99.90;;;;;;5034589;28;20222;-77
2022/11/09 08:11:19;;;;;;;2.87;0.93;;;12.90;99.90;;;;;;5033308;28;20212;-77
2022/11/09 08:13:45;;;;;;;3.00;1.10;;;12.90;99.90;;;;;;5034664;28;20171;-77
2022/11/09 08:16:11;;;;;;;2.77;1.03;;;12.90;99.90;;;;;;5034614;28;20177;-77
2022/11/09 08:18:36;;;;;;;3.53;0.83;;;12.90;99.90;;;;;;5034374;28;20188;-77
2022/11/09 08:21:03;;;;;;;6.73;1.33;;;12.90;99.90;;;;;;5032956;28;20222;-78
2022/11/09 08:23:28;;;;;;;2.40;1.20;;;12.90;99.90;;;;;;5034586;28;20533;-78
2022/11/09 08:25:54;;;;;;;3.50;1.10;;;12.90;99.90;;;;;;5034792;28;20181;-77
2022/11/09 08:28:20;;;;;;;5.07;1.07;;;12.90;99.90;;;;;;5034409;28;20180;-77
2022/11/09 08:30:55;;;;;;;4.90;1.13;;;13.00;99.90;;;;;;5032707;28;20172;-78
2022/11/09 08:33:20;;;;;;;7.87;1.20;;;13.00;99.90;;;;;;5034168;28;20612;-78
2022/11/09 08:35:46;;;;;;;4.57;0.97;;;13.00;99.90;;;;;;5034442;28;20176;-77
2022/11/09 08:38:11;;;;;;;3.93;1.20;;;13.00;99.90;;;;;;5034206;28;20180;-77
2022/11/09 08:40:37;;;;;;;3.20;1.33;;;13.10;99.90;;;;;;5033732;28;20172;-78
2022/11/09 08:43:04;;;;;;;4.07;1.20;;;13.20;99.90;;;;;;5033938;28;20180;-77
2022/11/09 08:45:35;;;;;;;3.47;1.20;;;13.20;99.90;;;;;;5033824;28;20176;-77
2022/11/09 08:48:01;;;;;;;1.03;0.60;;;13.30;99.90;;;;;;5032188;28;20546;-78
2022/11/09 08:50:28;;;;;;;3.70;1.10;;;13.30;99.90;;;;;;5033916;28;20176;-77
2022/11/09 08:52:54;;;;;;;3.17;1.10;;;13.30;99.90;;;;;;5033821;28;20196;-77
2022/11/09 08:55:20;;;;;;;3.93;1.10;;;13.30;99.90;;;;;;5033786;28;20175;-77
2022/11/09 08:57:45;;;;;;;3.47;1.20;;;13.40;99.90;;;;;;5033596;28;20169;-77
2022/11/09 09:00:14;;;;;;;3.80;1.10;;;13.50;99.90;;;;;;5032271;28;20172;-77
2022/11/09 09:02:40;;;;;;;1.73;0.90;;;13.50;99.90;;;;;;5033361;28;20208;-77
2022/11/09 09:05:05;;;;;;;5.10;1.03;;;13.50;99.90;;;;;;5032306;28;20179;-77
2022/11/09 09:07:31;;;;;;;2.40;1.00;;;13.60;99.90;;;;;;5032239;28;20184;-77
2022/11/09 09:09:56;;;;;;;4.47;1.40;;;13.60;99.90;;;;;;5033364;28;20172;-77
2022/11/09 09:12:22;;;;;;;1.70;0.90;;;13.70;99.90;;;;;;5033135;28;20218;-77
2022/11/09 09:14:48;;;;;;;4.93;1.63;;;13.70;99.90;;;;;;5031909;28;20180;-77
2022/11/09 09:17:14;;;;;;;2.57;1.03;;;13.80;99.90;;;;;;5032123;28;20178;-77
2022/11/09 09:19:39;;;;;;;4.30;1.00;;;13.80;99.90;;;;;;5033257;28;20168;-77
2022/11/09 09:22:05;;;;;;;3.87;0.80;;;13.90;99.90;;;;;;5033012;28;20682;-77
2022/11/09 09:24:30;;;;;;;4.33;1.27;;;13.90;99.90;;;;;;5033176;28;20179;-77
2022/11/09 09:26:56;;;;;;;6.73;1.53;;;13.90;99.90;;;;;;5033099;28;20187;-77
2022/11/09 09:29:21;;;;;;;5.80;1.07;;;14.00;99.90;;;;;;5031884;28;20656;-77
2022/11/09 09:31:47;;;;;;;5.10;1.40;;;14.10;92.10;;;;;;5032904;28;20207;-77
2022/11/09 09:34:12;;;;;;;3.40;1.10;;;14.10;97.90;;;;;;5033888;28;20200;-77
2022/11/09 09:36:38;;;;;;;4.83;1.37;;;14.20;99.90;;;;;;5035938;28;20179;-77
2022/11/09 09:39:04;;;;;;;3.37;1.07;;;14.20;70.30;;;;;;5037584;28;20168;-77
2022/11/09 09:41:49;;;;;;;3.17;0.83;;;14.20;61.20;;;;;;5037294;28;20188;-78
2022/11/09 09:44:36;;;;;;;4.80;1.07;;;14.20;83.60;;;;;;5037090;28;20303;-77
2022/11/09 09:47:12;;;;;;;4.27;0.93;;;14.40;68.00;;;;;;5035925;28;20168;-77
2022/11/09 09:49:54;;;;;;;5.97;1.20;;;14.30;51.30;;;;;;5035500;28;20176;-77
2022/11/09 09:52:26;;;;;;;4.27;1.63;;;14.40;1.00;;;;;;5035702;28;20211;-77
2022/11/09 09:55:19;;;;;;;4.70;1.00;;;14.40;1.00;;;;;;5037290;28;20164;-77
2022/11/09 09:57:52;;;;;;;5.33;1.10;;;14.40;1.00;;;;;;5031424;28;20211;-77
2022/11/09 10:00:24;;;;;;;3.17;1.00;;;14.50;1.00;;;;;;5037111;28;20172;-77
2022/11/09 10:02:52;;;;;;;3.57;1.00;;;14.50;1.00;;;;;;5036802;28;20243;-77
2022/11/09 10:05:19;;;;;;;6.33;1.50;;;14.60;1.00;;;;;;5036839;28;20176;-77
2022/11/09 10:07:55;;;;;;;2.10;0.83;;;14.60;1.00;;;;;;5036723;28;20539;-77
2022/11/09 10:10:43;;;;;;;3.77;1.33;;;14.70;1.00;;;;;;5035482;28;20210;-77
2022/11/09 10:13:57;;;;;;;5.90;1.17;;;14.70;1.00;;;;;;5035499;28;20571;-78
2022/11/09 10:16:27;;;;;;;5.83;1.00;;;14.70;1.00;;;;;;5023628;28;20215;-77
2022/11/09 10:18:52;;;;;;;5.23;1.13;;;14.70;1.00;;;;;;5035340;28;20225;-77
2022/11/09 10:21:42;;;;;;;5.27;1.00;;;14.80;1.00;;;;;;5036245;28;20200;-77
2022/11/09 10:24:35;;;;;;;4.63;1.57;;;14.90;1.00;;;;;;5035294;28;20179;-77
2022/11/09 10:27:11;;;;;;;2.63;0.80;;;14.90;1.00;;;;;;5035209;28;20642;-78
2022/11/09 10:29:44;;;;;;;2.73;0.80;;;14.90;1.00;;;;;;5035046;28;20626;-77
2022/11/09 10:32:13;;;;;;;4.20;1.30;;;14.90;1.00;;;;;;5038621;28;20278;-77
2022/11/09 10:35:06;;;;;;;7.83;1.20;;;14.90;1.00;;;;;;5039306;28;20168;-77
2022/11/09 10:37:38;;;;;;;4.80;1.00;;;14.90;1.00;;;;;;5039906;28;20183;-77
2022/11/09 10:40:11;;;;;;;4.27;1.00;;;14.90;1.00;;;;;;5038511;28;20172;-78
2022/11/09 10:42:36;;;;;;;4.20;1.10;;;14.90;1.00;;;;;;5040452;28;20196;-78
2022/11/09 10:45:16;;;;;;;5.53;1.73;;;15.00;1.00;;;;;;5037928;28;20683;-77
2022/11/09 10:47:50;;;;;;;4.63;1.10;;;15.00;1.00;;;;;;5035169;28;20264;-77
2022/11/09 10:50:24;;;;;;;4.87;1.10;;;15.00;1.00;;;;;;5036212;28;20165;-77
2022/11/09 10:52:50;;;;;;;6.13;1.20;;;15.00;1.00;;;;;;5035813;28;20203;-77
2022/11/09 10:55:26;;;;;;;5.73;1.23;;;15.10;1.00;;;;;;5034613;28;20275;-78
2022/11/09 10:57:55;;;;;;;4.47;1.10;;;15.00;1.00;;;;;;5036245;28;20210;-77
2022/11/09 11:00:22;;;;;;;8.73;1.10;;;15.00;1.00;;;;;;5036342;28;20180;-77
2022/11/09 11:02:49;;;;;;;4.07;1.27;;;15.00;1.00;;;;;;5035648;28;20243;-77
2022/11/09 11:05:17;;;;;;;3.80;1.20;;;15.00;99.90;;;;;;5036121;28;20172;-77
2022/11/09 11:07:44;;;;;;;5.63;1.20;;;14.90;1.00;;;;;;5034776;28;20176;-78
2022/11/09 11:10:16;;;;;;;5.73;1.00;;;14.90;99.90;;;;;;5035740;28;20222;-77
2022/11/09 11:12:44;;;;;;;6.77;1.43;;;14.90;1.00;;;;;;5035513;28;20252;-77
2022/11/09 11:15:28;;;;;;;4.80;0.90;;;14.90;1.00;;;;;;5035521;28;20176;-77
2022/11/09 11:18:04;;;;;;;3.37;1.00;;;14.90;1.00;;;;;;5035528;28;20730;-77
2022/11/09 11:20:31;;;;;;;4.50;1.07;;;15.00;1.00;;;;;;5034205;28;20597;-77
2022/11/09 11:23:19;;;;;;;8.47;0.93;;;15.00;99.90;;;;;;5035395;28;20172;-77
2022/11/09 11:25:56;;;;;;;5.33;1.13;;;15.00;99.90;;;;;;5034049;28;20654;-77
2022/11/09 11:28:25;;;;;;;5.47;1.30;;;15.10;99.90;;;;;;5034265;28;20176;-77
2022/11/09 11:30:51;;;;;;;2.47;0.73;;;15.10;99.90;;;;;;5033972;28;20176;-77
2022/11/09 11:33:20;;;;;;;8.23;1.20;;;15.10;84.00;;;;;;5035088;28;20203;-78
2022/11/09 11:35:56;;;;;;;1.83;0.73;;;15.10;1.00;;;;;;5035639;28;20219;-77
2022/11/09 11:38:52;;;;;;;7.47;1.20;;;15.10;1.00;;;;;;5035340;28;20689;-77
2022/11/09 11:41:35;;;;;;;4.13;1.07;;;15.10;1.00;;;;;;5035146;28;20196;-78
2022/11/09 11:44:07;;;;;;;3.33;1.00;;;15.20;1.00;;;;;;5035443;28;20188;-77
2022/11/09 11:46:59;;;;;;;5.13;1.27;;;15.20;1.00;;;;;;5034976;28;20172;-77
2022/11/09 11:49:48;;;;;;;4.50;0.90;;;15.10;1.00;;;;;;5035348;28;20157;-77
2022/11/09 11:52:22;;;;;;;8.17;1.30;;;15.20;1.00;;;;;;5034406;28;20204;-77
2022/11/09 11:55:13;;;;;;;4.77;0.90;;;15.20;30.80;;;;;;5035938;28;20163;-77
2022/11/09 11:58:16;;;;;;;2.93;1.37;;;15.30;1.00;;;;;;5035290;28;20156;-77
2022/11/09 12:01:19;;;;;;;6.40;1.50;;;15.30;1.00;;;;;;5035804;28;20511;-77
2022/11/09 12:04:27;;;;;;;4.50;1.40;;;15.40;1.00;;;;;;5020464;28;20231;-77
2022/11/09 12:07:02;;;;;;;6.30;1.07;;;15.40;1.00;;;;;;5021119;28;20262;-77
2022/11/09 12:09:57;;;;;;;4.87;1.50;;;15.50;99.90;;;;;;5033397;28;20175;-77
2022/11/09 12:12:44;;;;;;;3.20;1.10;;;15.50;1.00;;;;;;5034094;28;20716;-77
2022/11/09 12:15:36;;;;;;;7.10;1.30;;;15.40;13.50;;;;;;5034817;28;20160;-77
2022/11/09 12:18:31;;;;;;;3.63;0.90;;;15.40;99.90;;;;;;5034668;28;20159;-77
2022/11/09 12:21:11;;;;;;;6.40;1.53;;;15.30;1.00;;;;;;5015973;28;20299;-78
2022/11/09 12:23:51;;;;;;;6.13;1.20;;;15.30;99.90;;;;;;5033350;28;20254;-77
2022/11/09 12:26:41;;;;;;;5.80;1.50;;;15.30;99.90;;;;;;5034708;28;20160;-78
2022/11/09 12:29:17;;;;;;;4.60;1.10;;;15.30;99.90;;;;;;5034363;28;20626;-77
2022/11/09 12:32:22;;;;;;;4.50;1.00;;;15.20;1.00;;;;;;5034416;28;20242;-77
2022/11/09 12:35:07;;;;;;;7.57;1.63;;;15.20;99.90;;;;;;5032984;28;20610;-77
2022/11/09 12:37:38;;;;;;;6.87;1.50;;;15.10;99.90;;;;;;5033188;28;20165;-77
2022/11/09 12:40:21;;;;;;;4.27;1.13;;;15.10;1.00;;;;;;5034061;28;20152;-77
2022/11/09 12:43:15;;;;;;;10.20;1.37;;;15.10;1.00;;;;;;5034056;28;20192;-77
2022/11/09 12:45:42;;;;;;;2.83;1.10;;;15.10;1.00;;;;;;5034290;28;20172;-77
2022/11/09 12:48:28;;;;;;;7.47;1.47;;;15.10;1.00;;;;;;5032733;28;20176;-77
2022/11/09 12:50:54;;;;;;;6.47;1.17;;;15.10;1.00;;;;;;5033954;28;20192;-77
2022/11/09 12:53:24;;;;;;;8.33;1.23;;;15.10;99.90;;;;;;5033602;28;20210;-77
2022/11/09 12:56:19;;;;;;;2.13;0.90;;;15.10;99.90;;;;;;5033648;28;20233;-77
2022/11/09 12:58:45;;;;;;;3.47;1.03;;;15.20;99.90;;;;;;5032331;28;20168;-77
2022/11/09 13:01:33;;;;;;;3.00;0.90;;;15.20;1.00;;;;;;5033572;28;20755;-77
2022/11/09 13:04:01;;;;;;;8.53;1.40;;;15.20;1.00;;;;;;5033393;28;20202;-77